Data for 07/03/2009

Time Sea-Level Adjusted Pressure Absolute Pressure Temperature Relative Humidity Dew Point   
(mb) (inHg) (mb) (inHg) (C) (F) (%) (C) (F)
00:05 1021 30.15 850 25.1 15.3 59.5 70 10 50
00:10 1021 30.15 850 25.1 15.3 59.5 71 10 50
00:15 1020 30.12 850 25.1 15.2 59.3 71 10 50
00:20 1020 30.12 850 25.1 15.1 59.2 71 10 49.9
00:25 1020 30.12 850 25.1 15.1 59.1 71 9.9 49.8
00:30 1020 30.12 850 25.1 15 59.1 71 9.9 49.8
00:35 1020 30.12 850 25.1 15 59 71 9.9 49.8
00:40 1020 30.12 850 25.1 14.9 58.8 72 10 50
00:45 1020 30.12 850 25.1 14.7 58.4 73 9.9 49.8
00:50 1020 30.12 850 25.1 14.6 58.4 73 9.8 49.7
00:55 1020 30.12 849 25.07 14.6 58.4 73 9.9 49.8
01:00 1020 30.12 849 25.07 14.6 58.3 73 9.9 49.8
01:05 1020 30.12 850 25.1 14.5 58.1 74 9.9 49.8
01:10 1020 30.12 850 25.1 14.4 57.9 74 9.9 49.8
01:15 1020 30.12 850 25.1 14.4 57.9 74 9.8 49.6
01:20 1020 30.12 850 25.1 14.4 57.8 74 9.8 49.7
01:25 1020 30.12 850 25.1 14.3 57.8 74 9.8 49.7
01:30 1020 30.12 850 25.1 14.3 57.7 75 9.9 49.8
01:35 1020 30.12 850 25.1 14.2 57.6 75 9.8 49.7
01:40 1020 30.12 849 25.07 14.3 57.7 75 9.9 49.9
01:45 1020 30.12 849 25.07 14.2 57.6 75 9.9 49.8
01:50 1020 30.12 849 25.07 14.3 57.7 75 9.9 49.8
01:55 1020 30.12 849 25.07 14.2 57.6 75 9.9 49.7
02:00 1020 30.12 849 25.07 14.3 57.7 75 9.9 49.8
02:05 1020 30.12 849 25.07 14.3 57.7 75 9.9 49.7
02:10 1020 30.12 849 25.07 14.2 57.6 75 9.9 49.8
02:15 1020 30.12 849 25.07 14.2 57.5 75 9.9 49.8
02:20 1020 30.12 849 25.07 14.1 57.5 75 9.8 49.7
02:25 1020 30.12 849 25.07 14.1 57.4 75 9.8 49.7
02:30 1020 30.12 849 25.07 14.1 57.4 75 9.9 49.8
02:35 1020 30.12 849 25.07 14.1 57.4 75 9.9 49.7
02:40 1020 30.12 849 25.07 14.1 57.4 75 9.7 49.5
02:45 1020 30.12 849 25.07 14.2 57.6 75 9.9 49.7
02:50 1020 30.12 850 25.1 14.1 57.4 75 9.9 49.8
02:55 1020 30.12 850 25.1 14 57.1 77 9.9 49.9
03:00 1020 30.12 850 25.1 13.8 56.8 77 9.9 49.8
03:05 1020 30.12 850 25.1 13.8 56.8 77 9.9 49.8
03:10 1020 30.12 850 25.1 13.7 56.7 77 9.8 49.7
03:15 1021 30.15 850 25.1 13.8 56.8 77 9.8 49.6
03:20 1021 30.15 850 25.1 13.8 56.8 77 9.8 49.7
03:25 1021 30.15 850 25.1 13.8 56.8 77 9.8 49.7
03:30 1021 30.15 850 25.1 13.8 56.8 77 9.9 49.8
03:35 1021 30.15 850 25.1 13.7 56.6 78 9.9 49.8
03:40 1021 30.15 850 25.1 13.7 56.6 78 9.9 49.8
03:45 1021 30.15 850 25.1 13.6 56.5 78 9.8 49.7
03:50 1021 30.15 850 25.1 13.6 56.5 78 9.9 49.8
03:55 1021 30.15 850 25.1 13.6 56.4 78 9.8 49.7
04:00 1021 30.15 850 25.1 13.6 56.4 79 10 50.1
04:05 1021 30.15 850 25.1 13.5 56.3 81 10.3 50.5
04:10 1021 30.15 850 25.1 13.3 55.9 82 10.3 50.5
04:15 1021 30.15 850 25.1 13.2 55.7 83 10.3 50.5
04:20 1020 30.12 850 25.1 13.2 55.7 82 10.2 50.3
04:25 1020 30.12 849 25.07 13.4 56.1 81 10.1 50.2
04:30 1020 30.12 849 25.07 13.5 56.2 80 10 50.1
04:35 1020 30.12 850 25.1 13.5 56.4 80 10.1 50.2
04:40 1021 30.15 850 25.1 13.7 56.6 79 10.2 50.3
04:45 1021 30.15 850 25.1 13.8 56.8 79 10.1 50.2
04:50 1021 30.15 850 25.1 13.8 56.9 78 10.1 50.1
04:55 1021 30.15 850 25.1 13.9 57 77 10 50
05:00 1021 30.15 850 25.1 14.1 57.4 75 9.9 49.8
05:05 1021 30.15 850 25.1 14.3 57.7 75 10 50.1
05:10 1021 30.15 851 25.13 14.4 57.9 72 9.4 49
05:15 1021 30.15 851 25.13 14.7 58.4 74 10.1 50.2
05:20 1021 30.15 850 25.1 14.4 58 77 10.4 50.8
05:25 1021 30.15 850 25.1 14 57.3 78 10.4 50.7
05:30 1021 30.15 850 25.1 13.8 56.9 78 10.1 50.3
05:35 1021 30.15 850 25.1 13.8 56.9 79 10.3 50.5
05:40 1021 30.15 850 25.1 14 57.2 76 10 49.9
05:45 1021 30.15 850 25.1 14 57.2 77 10.1 50.2
05:50 1021 30.15 850 25.1 13.9 56.9 78 10 50.1
05:55 1021 30.15 850 25.1 13.8 56.8 79 10.1 50.3
06:00 1021 30.15 850 25.1 13.7 56.6 78 10 50
06:05 1021 30.15 850 25.1 13.7 56.6 78 10 50
06:10 1021 30.15 850 25.1 13.7 56.6 78 9.9 49.9
06:15 1021 30.15 850 25.1 13.7 56.6 79 10.2 50.4
06:20 1021 30.15 850 25.1 13.5 56.2 80 10 50
06:25 1021 30.15 850 25.1 13.5 56.2 79 9.9 49.9
06:30 1021 30.15 850 25.1 13.6 56.4 79 10 50
06:35 1021 30.15 851 25.13 13.8 56.8 78 10 49.9
06:40 1021 30.15 851 25.13 14.1 57.4 77 10.2 50.3
06:45 1021 30.15 850 25.1 14.1 57.4 78 10.3 50.5
06:50 1021 30.15 850 25.1 14 57.3 77 10 50
06:55 1021 30.15 850 25.1 13.8 56.8 78 10.1 50.2
07:00 1021 30.15 850 25.1 13.7 56.6 77 9.8 49.7
07:05 1021 30.15 850 25.1 14 57.1 72 9.1 48.4
07:10 1021 30.15 850 25.1 14.3 57.7 71 9 48.3
07:15 1021 30.15 850 25.1 14.6 58.2 71 9.4 48.9
07:20 1020 30.12 850 25.1 14.3 57.8 73 9.6 49.3
07:25 1020 30.12 850 25.1 14.2 57.6 71 9.1 48.4
07:30 1020 30.12 850 25.1 14.5 58.1 71 9.4 48.9
07:35 1020 30.12 850 25.1 14.6 58.3 71 9.4 48.9
07:40 1020 30.12 850 25.1 14.7 58.4 71 9.6 49.3
07:45 1021 30.15 850 25.1 14.9 58.9 69 9.4 48.8
07:50 1021 30.15 850 25.1 15.1 59.3 67 9 48.2
07:55 1021 30.15 850 25.1 15.2 59.3 66 8.9 48
08:00 1021 30.15 850 25.1 15.3 59.5 65 8.9 48
08:05 1021 30.15 850 25.1 15.3 59.6 66 9.1 48.4
08:10 1021 30.15 850 25.1 15.3 59.6 68 9.5 49.1
08:15 1021 30.15 850 25.1 15.4 59.8 66 9.1 48.4
08:20 1021 30.15 850 25.1 15.5 60 64 8.9 47.9
08:25 1021 30.15 850 25.1 15.7 60.2 64 9 48.3
08:30 1021 30.15 850 25.1 15.7 60.3 64 9 48.3
08:35 1021 30.15 850 25.1 15.8 60.5 63 8.8 47.9
08:40 1021 30.15 850 25.1 16 60.7 63 9 48.3
08:45 1021 30.15 850 25.1 16 60.8 63 9 48.2
08:50 1021 30.15 851 25.13 16.2 61.2 62 9 48.1
08:55 1021 30.15 850 25.1 16.3 61.3 62 9 48.2
09:00 1021 30.15 850 25.1 16.2 61.2 63 9.3 48.8
09:05 1021 30.15 851 25.13 16.3 61.4 61 8.9 48.1
09:10 1022 30.18 851 25.13 16.4 61.5 61 8.9 47.9
09:15 1022 30.18 851 25.13 16.5 61.8 60 8.8 47.8
09:20 1022 30.18 851 25.13 16.6 62 64 9.8 49.6
09:25 1022 30.18 851 25.13 16.5 61.6 69 10.9 51.7
09:30 1022 30.18 851 25.13 16.1 60.9 70 10.7 51.3
09:35 1022 30.18 852 25.16 15.9 60.6 72 10.9 51.6
09:40 1022 30.18 852 25.16 15.8 60.4 74 11.1 52
09:45 1023 30.21 852 25.16 15.6 60.1 76 11.4 52.4
09:50 1023 30.21 852 25.16 15.5 59.9 76 11.3 52.4
09:55 1023 30.21 852 25.16 15.6 60.1 75 11.3 52.3
10:00 1023 30.21 852 25.16 15.7 60.2 77 11.7 53
10:05 1023 30.21 852 25.16 15.5 59.8 77 11.4 52.6
10:10 1023 30.21 852 25.16 15.3 59.6 77 11.3 52.4
10:15 1023 30.21 852 25.16 15.5 59.8 77 11.5 52.8
10:20 1023 30.21 852 25.16 15.6 60 80 12.1 53.8
10:25 1023 30.21 852 25.16 15.5 59.8 78 11.6 52.9
10:30 1023 30.21 852 25.16 15.8 60.4 74 11.2 52.2
10:35 1023 30.21 852 25.16 16.3 61.3 68 10.5 50.8
10:40 1023 30.21 852 25.16 16.4 61.6 63 9.5 49.1
10:45 1023 30.21 852 25.16 16.8 62.2 62 9.5 49
10:50 1023 30.21 852 25.16 17 62.5 64 10.1 50.2
10:55 1023 30.21 852 25.16 17.3 63.2 63 10.2 50.4
11:00 1023 30.21 852 25.16 17.3 63.2 62 10.1 50.3
11:05 1023 30.21 852 25.16 17.2 62.9 64 10.5 50.9
11:10 1023 30.21 852 25.16 17.2 63 66 11 51.8
11:15 1023 30.21 852 25.16 17.4 63.4 67 11.4 52.5
11:20 1023 30.21 852 25.16 17.3 63.1 68 11.3 52.4
11:25 1023 30.21 852 25.16 16.9 62.5 68 11.2 52.1
11:30 1023 30.21 852 25.16 16.6 62 70 11.2 52.1
11:35 1023 30.21 852 25.16 16.7 62 69 11.1 51.9
11:40 1023 30.21 852 25.16 17.3 63.1 66 10.9 51.6
11:45 1023 30.21 852 25.16 18.8 65.9 59 10.7 51.3
11:50 1023 30.21 852 25.16 19.5 67.1 58 11.1 51.9
11:55 1023 30.21 852 25.16 19.2 66.6 57 10.7 51.3
12:00 1023 30.21 852 25.16 18.7 65.6 59 10.5 50.9
12:05 1023 30.21 852 25.16 19.3 66.7 54 9.9 49.9
12:10 1023 30.21 852 25.16 19.1 66.4 53 9.6 49.2
12:15 1023 30.21 852 25.16 19.1 66.3 53 9.5 49
12:20 1023 30.21 852 25.16 19.3 66.7 53 9.6 49.3
12:25 1023 30.21 852 25.16 19.1 66.3 53 9.5 49.1
12:30 1023 30.21 852 25.16 19 66.2 53 9.2 48.5
12:35 1023 30.21 852 25.16 19.1 66.3 55 9.8 49.7
12:40 1023 30.21 852 25.16 19.4 66.8 53 9.7 49.4
12:45 1023 30.21 852 25.16 19.4 66.9 51 9.2 48.6
12:50 1023 30.21 852 25.16 19.2 66.5 52 9.2 48.5
12:55 1023 30.21 852 25.16 19.4 66.8 52 9.5 49.1
13:00 1023 30.21 852 25.16 19.9 67.8 48 8.6 47.5
13:05 1023 30.21 852 25.16 20.2 68.3 48 9 48.2
13:10 1023 30.21 852 25.16 20.1 68.1 52 9.9 49.8
13:15 1022 30.18 852 25.16 20.4 68.8 47 8.9 47.9
13:20 1022 30.18 852 25.16 21 69.7 46 8.9 48.1
13:25 1022 30.18 852 25.16 21.2 70.2 46 9.2 48.5
13:30 1022 30.18 852 25.16 21.3 70.3 44 8.8 47.9
13:35 1022 30.18 852 25.16 21 69.8 43 8 46.4
13:40 1022 30.18 851 25.13 21 69.7 44 8.3 46.9
13:45 1022 30.18 851 25.13 21.2 70.1 42 8.1 46.5
13:50 1022 30.18 851 25.13 21.1 69.9 43 8.2 46.8
13:55 1022 30.18 851 25.13 21.6 70.8 43 8.8 47.8
14:00 1022 30.18 851 25.13 21.7 71 42 8.2 46.8
14:05 1022 30.18 851 25.13 22.8 73.1 37 7.7 45.9
14:10 1022 30.18 851 25.13 22.8 73 37 7.4 45.4
14:15 1022 30.18 851 25.13 22.4 72.3 35 6.4 43.6
14:20 1022 30.18 851 25.13 22.3 72.2 35 6.5 43.7
14:25 1022 30.18 851 25.13 22.2 72 37 7.1 44.7
14:30 1022 30.18 851 25.13 23.3 73.9 32 5.9 42.7
14:35 1022 30.18 851 25.13 24.3 75.7 33 7 44.6
14:40 1022 30.18 851 25.13 24.1 75.3 31 6.2 43.2
14:45 1022 30.18 851 25.13 25.3 77.5 29 6.2 43.1
14:50 1022 30.18 851 25.13 24.7 76.5 32 7.1 44.8
14:55 1022 30.18 851 25.13 24.4 76 29 5.6 42
15:00 1022 30.18 851 25.13 24.5 76.1 29 5.4 41.8
15:05 1022 30.18 851 25.13 24.8 76.6 30 6.2 43.2
15:10 1022 30.18 851 25.13 24.7 76.5 31 6.6 43.8
15:15 1022 30.18 851 25.13 24.2 75.5 31 6.3 43.4
15:20 1022 30.18 851 25.13 24 75.2 31 5.9 42.6
15:25 1022 30.18 851 25.13 23.7 74.7 28 4.5 40.1
15:30 1022 30.18 851 25.13 23.4 74.1 31 5.7 42.3
15:35 1022 30.18 851 25.13 23.6 74.5 34 7 44.6
15:40 1022 30.18 851 25.13 22.9 73.2 36 7.4 45.3
15:45 1022 30.18 851 25.13 22.4 72.2 38 7.5 45.5
15:50 1022 30.18 851 25.13 22.4 72.4 38 7.6 45.7
15:55 1022 30.18 851 25.13 22.5 72.4 41 8.6 47.5
16:00 1022 30.18 851 25.13 21.7 71 43 8.8 47.9
16:05 1022 30.18 851 25.13 21.5 70.7 43 8.6 47.5
16:10 1022 30.18 851 25.13 21.6 70.9 41 8.1 46.6
16:15 1021 30.15 851 25.13 21.6 70.8 40 7.7 45.8
16:20 1022 30.18 851 25.13 21.9 71.5 37 6.9 44.4
16:25 1021 30.15 851 25.13 23.4 74 34 6.9 44.4
16:30 1021 30.15 851 25.13 24 75.1 34 7.2 45
16:35 1021 30.15 850 25.1 24.8 76.7 31 6.7 44.1
16:40 1021 30.15 850 25.1 25.2 77.3 31 7.1 44.8
16:45 1021 30.15 851 25.13 25.4 77.7 31 7.4 45.3
16:50 1021 30.15 851 25.13 25.3 77.5 31 7.1 44.8
16:55 1021 30.15 851 25.13 24.7 76.5 33 7.5 45.4
17:00 1022 30.18 851 25.13 24.5 76.2 32 6.9 44.5
17:05 1022 30.18 851 25.13 24.8 76.6 30 6.5 43.6
17:10 1022 30.18 851 25.13 23.9 75 30 5.6 42
17:15 1022 30.18 851 25.13 24.5 76 28 5.1 41.2
17:20 1022 30.18 851 25.13 24.9 76.8 28 5.5 41.9
17:25 1022 30.18 851 25.13 24.8 76.6 28 5.2 41.4
17:30 1021 30.15 851 25.13 24.5 76.2 29 5.6 42.1
17:35 1021 30.15 851 25.13 23.9 75.1 28 4.6 40.2
17:40 1021 30.15 851 25.13 23.4 74.1 30 5 41
17:45 1021 30.15 851 25.13 23.5 74.3 28 4.1 39.5
17:50 1021 30.15 851 25.13 23.5 74.3 28 4.1 39.5
17:55 1022 30.18 851 25.13 23 73.4 29 4.1 39.3
18:00 1022 30.18 851 25.13 22.9 73.2 30 4.5 40.1
18:05 1022 30.18 851 25.13 22.7 72.8 30 4.2 39.6
18:10 1022 30.18 851 25.13 23 73.5 30 4.6 40.3
18:15 1022 30.18 851 25.13 23.4 74 29 4.8 40.6
18:20 1022 30.18 851 25.13 22.5 72.5 44 9.7 49.5
18:25 1022 30.18 851 25.13 21.3 70.4 48 9.9 49.9
18:30 1022 30.18 851 25.13 21.2 70.1 48 9.8 49.6
18:35 1022 30.18 851 25.13 21.1 70.1 48 9.8 49.7
18:40 1022 30.18 851 25.13 21.2 70.1 48 10 50
18:45 1022 30.18 851 25.13 21.1 70.1 49 10 50
18:50 1022 30.18 851 25.13 21.3 70.3 47 9.8 49.6
18:55 1022 30.18 851 25.13 21.2 70.1 47 9.7 49.4
19:00 1022 30.18 851 25.13 21.3 70.3 48 9.8 49.6
19:05 1022 30.18 851 25.13 21.4 70.6 46 9.6 49.4
19:10 1022 30.18 851 25.13 21.3 70.3 48 10.1 50.1
19:15 1022 30.18 851 25.13 21.4 70.5 47 9.8 49.7
19:20 1022 30.18 852 25.16 21.4 70.5 47 9.8 49.7
19:25 1022 30.18 852 25.16 21.1 69.9 49 10.1 50.1
19:30 1022 30.18 852 25.16 20.8 69.4 51 10.3 50.6
19:35 1022 30.18 852 25.16 20.5 68.8 51 10.1 50.1
19:40 1022 30.18 852 25.16 20.2 68.4 51 9.9 49.9
19:45 1022 30.18 852 25.16 20.1 68.2 51 9.8 49.6
19:50 1022 30.18 852 25.16 20 67.9 51 9.7 49.4
19:55 1022 30.18 852 25.16 19.8 67.6 51 9.5 49.2
20:00 1022 30.18 852 25.16 19.6 67.3 52 9.7 49.5
20:05 1022 30.18 852 25.16 19.4 66.9 53 9.6 49.3
20:10 1022 30.18 852 25.16 19.1 66.3 53 9.5 49
20:15 1022 30.18 851 25.13 18.8 65.8 52 8.9 48
20:20 1022 30.18 851 25.13 18.6 65.4 51 8.2 46.8
20:25 1022 30.18 852 25.16 17.9 64.3 50 7.5 45.5
20:30 1022 30.18 852 25.16 17.4 63.3 53 7.9 46.2
20:35 1022 30.18 852 25.16 17.4 63.4 55 8.4 47.1
20:40 1023 30.21 852 25.16 17.2 62.9 55 8.3 46.9
20:45 1023 30.21 852 25.16 16.9 62.4 57 8.5 47.2
20:50 1023 30.21 852 25.16 16.6 61.9 58 8.3 47
20:55 1023 30.21 852 25.16 16.6 61.8 57 8.1 46.7
21:00 1023 30.21 852 25.16 16.4 61.5 59 8.5 47.3
21:05 1023 30.21 852 25.16 16.2 61.1 60 8.4 47.1
21:10 1022 30.18 852 25.16 16.1 60.9 61 8.5 47.4
21:15 1022 30.18 852 25.16 15.9 60.6 62 8.8 47.9
21:20 1023 30.21 852 25.16 15.7 60.3 63 8.9 48
21:25 1023 30.21 852 25.16 15.6 60 65 9 48.2
21:30 1023 30.21 852 25.16 15.5 59.9 66 9.2 48.5
21:35 1023 30.21 852 25.16 15.3 59.6 66 9.2 48.5
21:40 1023 30.21 852 25.16 15.2 59.3 67 9 48.3
21:45 1023 30.21 852 25.16 15.2 59.3 66 8.9 48
21:50 1023 30.21 852 25.16 15.1 59.2 68 9.3 48.8
21:55 1023 30.21 852 25.16 14.8 58.7 70 9.5 49.1
22:00 1023 30.21 852 25.16 14.6 58.3 71 9.5 49.2
22:05 1023 30.21 852 25.16 14.4 58 73 9.6 49.3
22:10 1023 30.21 852 25.16 14.2 57.6 73 9.5 49.1
22:15 1023 30.21 852 25.16 14.2 57.5 73 9.5 49.2
22:20 1023 30.21 852 25.16 14.1 57.4 73 9.4 48.9
22:25 1023 30.21 852 25.16 14 57.2 74 9.5 49.1
22:30 1023 30.21 852 25.16 13.8 56.8 74 9.3 48.8
22:35 1023 30.21 852 25.16 13.6 56.5 74 9.1 48.4
22:40 1023 30.21 853 25.19 13.6 56.5 73 9 48.1
22:45 1023 30.21 853 25.19 13.7 56.6 72 8.7 47.6
22:50 1023 30.21 853 25.19 13.7 56.6 71 8.6 47.5
22:55 1023 30.21 853 25.19 13.6 56.5 71 8.5 47.3
23:00 1023 30.21 853 25.19 13.6 56.6 68 7.8 46.1
23:05 1023 30.21 853 25.19 13.7 56.7 71 8.6 47.4
23:10 1023 30.21 853 25.19 13.5 56.3 72 8.5 47.3
23:15 1023 30.21 853 25.19 13.4 56.1 71 8.3 46.9
23:20 1024 30.24 853 25.19 13.4 56.1 71 8.3 47
23:25 1024 30.24 853 25.19 13.4 56 71 8.3 46.9
23:30 1024 30.24 853 25.19 13.4 56.2 71 8.3 46.9
23:35 1023 30.21 853 25.19 13.7 56.6 69 8.1 46.6
23:40 1023 30.21 853 25.19 13.6 56.4 71 8.4 47.1
23:45 1023 30.21 853 25.19 13.4 56.1 72 8.4 47.1
23:50 1023 30.21 853 25.19 13.1 55.5 73 8.5 47.2
23:55 1023 30.21 853 25.19 12.8 55 74 8.3 46.9
24:00 1023 30.21 853 25.19 12.8 55.1 72 8 46.5